Domov               UVHVVR             MKGP            O straneh              
ZDRAVSTVENO VARSTVO RASTLIN
  MREŽA AGROMET. POSTAJ
 ► PROGNOSTIČNA OBVESTILA
AGROMETEOROLOŠKI PODATKI -
ARSO
OBVLADOVANJE TVEGANJ ZARADI
NEUGODNIH VREMENSKIH RAZMER
  ► NARAVNE NESREČE
  ► SUŠA/MOČA
  ► NAMAKANJE
  ► ŽLED (gozdarstvo)
KARTOGRAFSKI PRIKAZI
SPLETNE POVEZAVE
PROJEKTI IN PUBLIKACIJE

AGROMETEOROLOŠKA MREŽA: VREMENSKE POSTAJE IN FENOLOŠKA OPAZOVANJA

Pregled podatkov za lokacijo Purisima, meteorološka postaja 863702

Pregled senzorjev na lokaciji

ID Ime Zadnja
vrednost
Datum
zadnje
spremembe
Tip
senzorja
4192 Omočenost lista (U) 0 U 19.7.2018 05:15 A730WET
4193 Padavine (mm) 0 mm 19.7.2018 05:15 Rain-O-Matic
4191 Relativna vlaga 2 m (% RH) 85,68 % RH 19.7.2018 05:15 50YA
4214 Temperatura tal 5 cm (°C) 11,22 °C 19.7.2018 05:15 Generic -20 - +40 °C
4190 Temperatura 2 m (°C) 17,99 °C 19.7.2018 05:15 50YA

Pregled podatkov zadnjih 24 ur

Zap.
št.
Datum in čas Purisima
Omočenost
lista
Padavine Relativna
vlaga
2
m
Temperatura
tal
5
cm
Temperatura
2
m
1 19.7.2018 05:30
2 19.7.2018 05:00
3 19.7.2018 04:30 0 0 85,7 11,2 18
4 19.7.2018 04:00 0 0 85,6 11,4 17,7
5 19.7.2018 03:30 0 0 83,4 11,3 18,1
6 19.7.2018 03:00 0 0 79,7 11,6 18,4
7 19.7.2018 02:30 0 0 79,6 12,1 17,7
8 19.7.2018 02:00 0 0 77,4 11,9 18,2
9 19.7.2018 01:30 0 0 72 12,2 18,4
10 19.7.2018 01:00 0 0 76,7 12,6 17,7
11 19.7.2018 00:30 0 0 73,7 12,8 17,8
12 19.7.2018 00:00 0 0 74,8 12,9 17,7
13 18.7.2018 23:30 0 0 74,1 12,4 18
14 18.7.2018 23:00 0 0 74,3 12,5 18,2
15 18.7.2018 22:30 0 0 72,3 12,6 18,6
16 18.7.2018 22:00 0 0 73,1 12,8 19,2
17 18.7.2018 21:30 0 0 72,4 13 20,1
18 18.7.2018 21:00 0 0 78,8 12,9 20,6
19 18.7.2018 20:30 0 0 76,5 12,8 22,1
20 18.7.2018 20:00 0 0 66,2 12,9 23,4
21 18.7.2018 19:30 0 0 66,2 13 25,3
22 18.7.2018 19:00 0 0 65,9 12,7 26,7
23 18.7.2018 18:30 0 0 53,5 13,1 28,2
24 18.7.2018 18:00 0 0 52,1 11,1 28,7
25 18.7.2018 17:30 0 0 50,6 10,7 29
26 18.7.2018 17:00 0 0 52,8 10,2 29,4
27 18.7.2018 16:30 0 0 52,6 7,8 29,9
28 18.7.2018 16:00 0 0 51 9,7 30
29 18.7.2018 15:30 0 0 53,5 10,1 30,2
30 18.7.2018 15:00 0 0 54,9 9,4 30,4
31 18.7.2018 14:30 0 0 53,1 6,8 30,8
32 18.7.2018 14:00 0 0 51,4 7,1 30,9
33 18.7.2018 13:30 0 0 50,9 9,1 30,8
34 18.7.2018 13:00 0 0 53,7 9,7 30,6
35 18.7.2018 12:30 0 0 58,7 8,9 30,6
36 18.7.2018 12:00 0 0 59,3 9,2 30,4
37 18.7.2018 11:30 0 0 59,8 10,6 30,2
38 18.7.2018 11:00 0 0 59,2 9,3 30,1
39 18.7.2018 10:30 0 0 59,5 9,3 29,7
40 18.7.2018 10:00 0 0 62,3 10,3 28,9
41 18.7.2018 09:30 0 0 65,2 12,1 28,4
42 18.7.2018 09:00 0 0 65,3 12,2 27,5
43 18.7.2018 08:30 0 0 67,8 11,9 26,9
44 18.7.2018 08:00 0 0 66,5 11,9 26
45 18.7.2018 07:30 0 0 76 11,6 24,5
46 18.7.2018 07:00 0 0 80,6 11,9 22,6
47 18.7.2018 06:30 0 0 87,7 10,8 21,2
48 18.7.2018 06:00 0 0 93,6 10,6 18,8
© 2011 Ministrstvo za kmetijstvo, gozdarstvo in prehrano. Vse pravice pridržane.